< < Back
Terminal Aerodrome Forecast


Current Version              Previous Versions:   1  2  3  4  5  6  7  8  9  

Terminal Aerodrome Forecast

799
FTUS42 KFFC 181606 AAA
TAFCSG
TAF AMD
KCSG 181606Z 1816/1912 23004KT P6SM OVC016
     FM181800 19006KT P6SM VCSH BKN025
     FM190100 12004KT 6SM -RA BKN015
     FM190400 13006KT 3SM -SHRA BR BKN006 OVC012 PROB30 1910/1912
      1SM TSRA BKN004CB OVC008=

Latest METAR

173
SAUS70 KWBC 182300
MTRCSG
METAR KCSG 182251Z 21006KT 10SM FEW018 BKN029 BKN050 22/19 A2992 RMK AO2
SLP127 T02220189


USA.gov is the U.S. government's official web portal to all federal, state and local government web resources and services.